sensor_id;sensor_type;location;lat;lon;timestamp;P1;durP1;ratioP1;P2;durP2;ratioP2
41661;SDS011;27351;45.992;12.666;2023-02-28T00:00:20;6.45;;;3.90;;
41661;SDS011;27351;45.992;12.666;2023-02-28T00:02:46;7.10;;;4.47;;
41661;SDS011;27351;45.992;12.666;2023-02-28T00:05:13;6.93;;;3.97;;
41661;SDS011;27351;45.992;12.666;2023-02-28T00:07:39;7.80;;;4.10;;
41661;SDS011;27351;45.992;12.666;2023-02-28T00:10:05;7.20;;;4.30;;
41661;SDS011;27351;45.992;12.666;2023-02-28T00:12:33;8.17;;;4.63;;
41661;SDS011;27351;45.992;12.666;2023-02-28T00:14:59;7.88;;;4.57;;
41661;SDS011;27351;45.992;12.666;2023-02-28T00:17:24;6.88;;;4.22;;
41661;SDS011;27351;45.992;12.666;2023-02-28T00:19:50;6.30;;;4.10;;
41661;SDS011;27351;45.992;12.666;2023-02-28T00:22:20;7.50;;;4.50;;
41661;SDS011;27351;45.992;12.666;2023-02-28T00:24:46;7.65;;;4.57;;
41661;SDS011;27351;45.992;12.666;2023-02-28T00:27:12;8.85;;;4.72;;
41661;SDS011;27351;45.992;12.666;2023-02-28T00:29:38;8.30;;;4.32;;
41661;SDS011;27351;45.992;12.666;2023-02-28T00:32:04;7.70;;;4.55;;
41661;SDS011;27351;45.992;12.666;2023-02-28T00:34:30;6.67;;;4.17;;
41661;SDS011;27351;45.992;12.666;2023-02-28T00:36:56;7.90;;;4.95;;
41661;SDS011;27351;45.992;12.666;2023-02-28T00:39:22;7.57;;;4.90;;
41661;SDS011;27351;45.992;12.666;2023-02-28T00:41:47;7.90;;;4.37;;
41661;SDS011;27351;45.992;12.666;2023-02-28T00:44:13;8.57;;;4.70;;
41661;SDS011;27351;45.992;12.666;2023-02-28T00:46:39;8.30;;;4.80;;
41661;SDS011;27351;45.992;12.666;2023-02-28T00:49:04;7.15;;;4.47;;
41661;SDS011;27351;45.992;12.666;2023-02-28T00:51:30;8.33;;;4.30;;
41661;SDS011;27351;45.992;12.666;2023-02-28T00:53:56;7.63;;;4.78;;
41661;SDS011;27351;45.992;12.666;2023-02-28T00:56:22;7.93;;;4.90;;
41661;SDS011;27351;45.992;12.666;2023-02-28T00:58:48;7.70;;;4.75;;
41661;SDS011;27351;45.992;12.666;2023-02-28T01:01:14;8.80;;;4.97;;
41661;SDS011;27351;45.992;12.666;2023-02-28T01:03:39;7.30;;;4.88;;
41661;SDS011;27351;45.992;12.666;2023-02-28T01:06:05;8.10;;;4.78;;
41661;SDS011;27351;45.992;12.666;2023-02-28T01:08:31;7.77;;;4.57;;
41661;SDS011;27351;45.992;12.666;2023-02-28T01:10:56;7.83;;;4.43;;
41661;SDS011;27351;45.992;12.666;2023-02-28T01:13:22;8.40;;;5.17;;
41661;SDS011;27351;45.992;12.666;2023-02-28T01:15:49;8.30;;;5.07;;
41661;SDS011;27351;45.992;12.666;2023-02-28T01:18:16;8.98;;;5.05;;
41661;SDS011;27351;45.992;12.666;2023-02-28T01:20:41;8.67;;;4.80;;
41661;SDS011;27351;45.992;12.666;2023-02-28T01:23:08;7.57;;;4.67;;
41661;SDS011;27351;45.992;12.666;2023-02-28T01:25:35;8.75;;;5.03;;
41661;SDS011;27351;45.992;12.666;2023-02-28T01:28:03;7.75;;;5.03;;
41661;SDS011;27351;45.992;12.666;2023-02-28T01:30:29;8.20;;;5.00;;
41661;SDS011;27351;45.992;12.666;2023-02-28T01:32:55;8.10;;;5.23;;
41661;SDS011;27351;45.992;12.666;2023-02-28T01:35:21;8.30;;;5.15;;
41661;SDS011;27351;45.992;12.666;2023-02-28T01:37:46;7.88;;;4.90;;
41661;SDS011;27351;45.992;12.666;2023-02-28T01:40:12;9.50;;;5.03;;
41661;SDS011;27351;45.992;12.666;2023-02-28T01:42:38;8.07;;;4.97;;
41661;SDS011;27351;45.992;12.666;2023-02-28T01:50:22;7.80;;;4.80;;
41661;SDS011;27351;45.992;12.666;2023-02-28T01:52:48;8.52;;;5.15;;
41661;SDS011;27351;45.992;12.666;2023-02-28T01:55:15;7.82;;;5.13;;
41661;SDS011;27351;45.992;12.666;2023-02-28T01:57:43;8.35;;;4.80;;
41661;SDS011;27351;45.992;12.666;2023-02-28T02:00:12;8.23;;;4.53;;
41661;SDS011;27351;45.992;12.666;2023-02-28T02:02:40;8.70;;;4.88;;
41661;SDS011;27351;45.992;12.666;2023-02-28T02:05:19;8.05;;;4.95;;
41661;SDS011;27351;45.992;12.666;2023-02-28T02:07:45;7.88;;;4.90;;
41661;SDS011;27351;45.992;12.666;2023-02-28T02:10:19;8.30;;;5.13;;
41661;SDS011;27351;45.992;12.666;2023-02-28T02:18:09;9.80;;;5.38;;
41661;SDS011;27351;45.992;12.666;2023-02-28T02:23:33;8.13;;;4.80;;
41661;SDS011;27351;45.992;12.666;2023-02-28T02:28:37;8.75;;;4.80;;
41661;SDS011;27351;45.992;12.666;2023-02-28T02:33:37;8.03;;;4.63;;
41661;SDS011;27351;45.992;12.666;2023-02-28T02:41:43;9.43;;;5.40;;
41661;SDS011;27351;45.992;12.666;2023-02-28T02:46:49;8.38;;;5.03;;
41661;SDS011;27351;45.992;12.666;2023-02-28T02:49:24;9.47;;;5.37;;
41661;SDS011;27351;45.992;12.666;2023-02-28T02:51:51;9.32;;;5.28;;
41661;SDS011;27351;45.992;12.666;2023-02-28T02:54:26;8.82;;;5.25;;
41661;SDS011;27351;45.992;12.666;2023-02-28T02:56:55;9.50;;;5.40;;
41661;SDS011;27351;45.992;12.666;2023-02-28T02:59:22;8.75;;;5.20;;
41661;SDS011;27351;45.992;12.666;2023-02-28T03:01:50;9.30;;;5.60;;
41661;SDS011;27351;45.992;12.666;2023-02-28T03:04:18;8.10;;;5.43;;
41661;SDS011;27351;45.992;12.666;2023-02-28T03:06:46;9.43;;;5.30;;
41661;SDS011;27351;45.992;12.666;2023-02-28T03:09:11;8.73;;;5.30;;
41661;SDS011;27351;45.992;12.666;2023-02-28T03:11:38;9.27;;;5.57;;
41661;SDS011;27351;45.992;12.666;2023-02-28T03:16:45;9.55;;;5.63;;
41661;SDS011;27351;45.992;12.666;2023-02-28T03:26:42;10.37;;;5.77;;
41661;SDS011;27351;45.992;12.666;2023-02-28T03:29:13;10.68;;;5.70;;
41661;SDS011;27351;45.992;12.666;2023-02-28T03:31:50;9.15;;;5.63;;
41661;SDS011;27351;45.992;12.666;2023-02-28T03:34:25;10.23;;;5.90;;
41661;SDS011;27351;45.992;12.666;2023-02-28T03:36:55;10.25;;;5.65;;
41661;SDS011;27351;45.992;12.666;2023-02-28T03:39:45;9.10;;;5.38;;
41661;SDS011;27351;45.992;12.666;2023-02-28T03:42:09;10.15;;;5.68;;
41661;SDS011;27351;45.992;12.666;2023-02-28T03:44:38;10.37;;;5.77;;
41661;SDS011;27351;45.992;12.666;2023-02-28T03:49:38;9.50;;;5.20;;
41661;SDS011;27351;45.992;12.666;2023-02-28T03:52:05;9.75;;;5.70;;
41661;SDS011;27351;45.992;12.666;2023-02-28T03:54:33;10.23;;;5.93;;
41661;SDS011;27351;45.992;12.666;2023-02-28T03:57:05;9.55;;;5.78;;
41661;SDS011;27351;45.992;12.666;2023-02-28T03:59:37;10.07;;;5.78;;
41661;SDS011;27351;45.992;12.666;2023-02-28T04:02:04;10.13;;;5.80;;
41661;SDS011;27351;45.992;12.666;2023-02-28T04:04:29;11.20;;;6.07;;
41661;SDS011;27351;45.992;12.666;2023-02-28T04:07:02;9.65;;;5.40;;
41661;SDS011;27351;45.992;12.666;2023-02-28T04:09:27;9.18;;;5.50;;
41661;SDS011;27351;45.992;12.666;2023-02-28T04:11:53;9.35;;;5.22;;
41661;SDS011;27351;45.992;12.666;2023-02-28T04:14:20;9.27;;;5.30;;
41661;SDS011;27351;45.992;12.666;2023-02-28T04:16:46;10.13;;;5.65;;
41661;SDS011;27351;45.992;12.666;2023-02-28T04:19:12;10.80;;;5.78;;
41661;SDS011;27351;45.992;12.666;2023-02-28T04:21:39;10.70;;;5.47;;
41661;SDS011;27351;45.992;12.666;2023-02-28T04:24:05;9.57;;;5.38;;
41661;SDS011;27351;45.992;12.666;2023-02-28T04:26:32;11.65;;;5.75;;
41661;SDS011;27351;45.992;12.666;2023-02-28T04:28:58;10.57;;;5.90;;
41661;SDS011;27351;45.992;12.666;2023-02-28T04:31:24;10.80;;;6.20;;
41661;SDS011;27351;45.992;12.666;2023-02-28T04:33:50;11.18;;;6.20;;
41661;SDS011;27351;45.992;12.666;2023-02-28T04:36:15;11.20;;;6.23;;
41661;SDS011;27351;45.992;12.666;2023-02-28T04:38:43;11.10;;;5.88;;
41661;SDS011;27351;45.992;12.666;2023-02-28T04:41:08;10.07;;;5.90;;
41661;SDS011;27351;45.992;12.666;2023-02-28T04:43:34;11.10;;;5.97;;
41661;SDS011;27351;45.992;12.666;2023-02-28T04:46:01;10.68;;;5.90;;
41661;SDS011;27351;45.992;12.666;2023-02-28T04:48:27;11.50;;;6.20;;
41661;SDS011;27351;45.992;12.666;2023-02-28T04:50:53;11.07;;;5.97;;
41661;SDS011;27351;45.992;12.666;2023-02-28T04:53:19;11.13;;;5.70;;
41661;SDS011;27351;45.992;12.666;2023-02-28T04:55:45;11.65;;;6.22;;
41661;SDS011;27351;45.992;12.666;2023-02-28T04:58:11;11.77;;;6.13;;
41661;SDS011;27351;45.992;12.666;2023-02-28T05:00:37;12.15;;;6.90;;
41661;SDS011;27351;45.992;12.666;2023-02-28T05:03:02;11.80;;;6.70;;
41661;SDS011;27351;45.992;12.666;2023-02-28T05:05:28;12.37;;;6.57;;
41661;SDS011;27351;45.992;12.666;2023-02-28T05:07:53;12.07;;;6.57;;
41661;SDS011;27351;45.992;12.666;2023-02-28T05:10:21;10.68;;;6.15;;
41661;SDS011;27351;45.992;12.666;2023-02-28T05:12:47;12.38;;;6.32;;
41661;SDS011;27351;45.992;12.666;2023-02-28T05:15:13;12.10;;;6.35;;
41661;SDS011;27351;45.992;12.666;2023-02-28T05:17:39;11.98;;;6.65;;
41661;SDS011;27351;45.992;12.666;2023-02-28T05:20:05;13.23;;;6.37;;
41661;SDS011;27351;45.992;12.666;2023-02-28T05:22:31;11.75;;;6.00;;
41661;SDS011;27351;45.992;12.666;2023-02-28T05:24:57;13.77;;;6.45;;
41661;SDS011;27351;45.992;12.666;2023-02-28T05:27:22;12.10;;;6.60;;
41661;SDS011;27351;45.992;12.666;2023-02-28T05:29:48;13.13;;;6.73;;
41661;SDS011;27351;45.992;12.666;2023-02-28T05:32:14;11.70;;;6.37;;
41661;SDS011;27351;45.992;12.666;2023-02-28T05:34:39;12.73;;;6.73;;
41661;SDS011;27351;45.992;12.666;2023-02-28T05:37:06;13.38;;;6.85;;
41661;SDS011;27351;45.992;12.666;2023-02-28T05:39:32;13.95;;;7.25;;
41661;SDS011;27351;45.992;12.666;2023-02-28T05:41:57;13.20;;;6.47;;
41661;SDS011;27351;45.992;12.666;2023-02-28T05:44:23;13.68;;;6.80;;
41661;SDS011;27351;45.992;12.666;2023-02-28T05:46:48;12.70;;;6.57;;
41661;SDS011;27351;45.992;12.666;2023-02-28T05:49:14;13.73;;;7.20;;
41661;SDS011;27351;45.992;12.666;2023-02-28T05:51:39;11.00;;;6.53;;
41661;SDS011;27351;45.992;12.666;2023-02-28T05:54:05;12.57;;;6.65;;
41661;SDS011;27351;45.992;12.666;2023-02-28T05:56:31;12.27;;;6.20;;
41661;SDS011;27351;45.992;12.666;2023-02-28T05:58:56;13.88;;;7.40;;
41661;SDS011;27351;45.992;12.666;2023-02-28T06:01:41;14.35;;;6.72;;
41661;SDS011;27351;45.992;12.666;2023-02-28T06:04:10;12.50;;;6.82;;
41661;SDS011;27351;45.992;12.666;2023-02-28T06:06:36;13.90;;;6.73;;
41661;SDS011;27351;45.992;12.666;2023-02-28T06:09:03;12.77;;;7.35;;
41661;SDS011;27351;45.992;12.666;2023-02-28T06:11:28;12.77;;;7.05;;
41661;SDS011;27351;45.992;12.666;2023-02-28T06:13:54;12.43;;;6.60;;
41661;SDS011;27351;45.992;12.666;2023-02-28T06:16:21;12.88;;;6.53;;
41661;SDS011;27351;45.992;12.666;2023-02-28T06:18:46;11.53;;;6.50;;
41661;SDS011;27351;45.992;12.666;2023-02-28T06:21:12;13.03;;;6.73;;
41661;SDS011;27351;45.992;12.666;2023-02-28T06:23:38;14.00;;;7.10;;
41661;SDS011;27351;45.992;12.666;2023-02-28T06:26:03;16.27;;;7.45;;
41661;SDS011;27351;45.992;12.666;2023-02-28T06:28:29;16.08;;;7.97;;
41661;SDS011;27351;45.992;12.666;2023-02-28T06:30:54;15.35;;;8.60;;
41661;SDS011;27351;45.992;12.666;2023-02-28T06:33:20;13.88;;;7.30;;
41661;SDS011;27351;45.992;12.666;2023-02-28T06:35:52;10.85;;;6.20;;
41661;SDS011;27351;45.992;12.666;2023-02-28T06:38:18;11.80;;;6.40;;
41661;SDS011;27351;45.992;12.666;2023-02-28T06:40:44;12.48;;;6.60;;
41661;SDS011;27351;45.992;12.666;2023-02-28T06:43:10;11.63;;;6.20;;
41661;SDS011;27351;45.992;12.666;2023-02-28T06:45:44;11.73;;;6.10;;
41661;SDS011;27351;45.992;12.666;2023-02-28T06:48:10;13.27;;;6.22;;
41661;SDS011;27351;45.992;12.666;2023-02-28T06:50:36;11.93;;;5.80;;
41661;SDS011;27351;45.992;12.666;2023-02-28T06:53:02;12.45;;;5.95;;
41661;SDS011;27351;45.992;12.666;2023-02-28T06:55:28;13.83;;;6.50;;
41661;SDS011;27351;45.992;12.666;2023-02-28T06:57:53;13.53;;;6.60;;
41661;SDS011;27351;45.992;12.666;2023-02-28T07:00:20;10.63;;;6.10;;
41661;SDS011;27351;45.992;12.666;2023-02-28T07:02:45;12.33;;;6.00;;
41661;SDS011;27351;45.992;12.666;2023-02-28T07:05:12;12.40;;;5.70;;
41661;SDS011;27351;45.992;12.666;2023-02-28T07:07:38;9.80;;;5.47;;
41661;SDS011;27351;45.992;12.666;2023-02-28T07:10:09;10.13;;;4.93;;
41661;SDS011;27351;45.992;12.666;2023-02-28T07:12:36;11.27;;;5.30;;
41661;SDS011;27351;45.992;12.666;2023-02-28T07:15:01;10.50;;;5.63;;
41661;SDS011;27351;45.992;12.666;2023-02-28T07:17:28;10.38;;;4.95;;
41661;SDS011;27351;45.992;12.666;2023-02-28T07:19:53;10.63;;;5.23;;
41661;SDS011;27351;45.992;12.666;2023-02-28T07:22:19;9.07;;;4.73;;
41661;SDS011;27351;45.992;12.666;2023-02-28T07:24:44;10.80;;;4.87;;
41661;SDS011;27351;45.992;12.666;2023-02-28T07:27:10;9.00;;;4.90;;
41661;SDS011;27351;45.992;12.666;2023-02-28T07:29:35;9.30;;;4.57;;
41661;SDS011;27351;45.992;12.666;2023-02-28T07:32:01;10.03;;;5.20;;
41661;SDS011;27351;45.992;12.666;2023-02-28T07:34:26;8.97;;;4.73;;
41661;SDS011;27351;45.992;12.666;2023-02-28T07:36:53;10.03;;;5.00;;
41661;SDS011;27351;45.992;12.666;2023-02-28T07:39:18;10.15;;;4.93;;
41661;SDS011;27351;45.992;12.666;2023-02-28T07:41:44;9.27;;;4.80;;
41661;SDS011;27351;45.992;12.666;2023-02-28T07:44:10;9.57;;;4.70;;
41661;SDS011;27351;45.992;12.666;2023-02-28T07:46:36;8.48;;;4.72;;
41661;SDS011;27351;45.992;12.666;2023-02-28T07:49:02;8.80;;;4.73;;
41661;SDS011;27351;45.992;12.666;2023-02-28T07:51:30;8.13;;;4.57;;
41661;SDS011;27351;45.992;12.666;2023-02-28T07:53:57;11.07;;;4.80;;
41661;SDS011;27351;45.992;12.666;2023-02-28T07:56:23;9.93;;;5.32;;
41661;SDS011;27351;45.992;12.666;2023-02-28T07:58:48;8.03;;;4.23;;
41661;SDS011;27351;45.992;12.666;2023-02-28T08:01:14;10.07;;;4.90;;
41661;SDS011;27351;45.992;12.666;2023-02-28T08:03:40;9.02;;;4.55;;
41661;SDS011;27351;45.992;12.666;2023-02-28T08:06:06;8.85;;;4.78;;
41661;SDS011;27351;45.992;12.666;2023-02-28T08:08:32;8.75;;;4.88;;
41661;SDS011;27351;45.992;12.666;2023-02-28T08:11:01;7.67;;;4.37;;
41661;SDS011;27351;45.992;12.666;2023-02-28T08:13:27;8.60;;;4.60;;
41661;SDS011;27351;45.992;12.666;2023-02-28T08:15:53;8.27;;;4.25;;
41661;SDS011;27351;45.992;12.666;2023-02-28T08:18:20;7.82;;;4.15;;
41661;SDS011;27351;45.992;12.666;2023-02-28T08:20:45;8.52;;;4.43;;
41661;SDS011;27351;45.992;12.666;2023-02-28T08:23:11;8.07;;;4.45;;
41661;SDS011;27351;45.992;12.666;2023-02-28T08:25:36;9.07;;;4.60;;
41661;SDS011;27351;45.992;12.666;2023-02-28T08:28:02;8.43;;;4.60;;
41661;SDS011;27351;45.992;12.666;2023-02-28T08:30:27;8.30;;;4.23;;
41661;SDS011;27351;45.992;12.666;2023-02-28T08:32:53;8.43;;;4.50;;
41661;SDS011;27351;45.992;12.666;2023-02-28T08:35:19;10.60;;;5.00;;
41661;SDS011;27351;45.992;12.666;2023-02-28T08:37:47;8.57;;;4.70;;
41661;SDS011;27351;45.992;12.666;2023-02-28T08:40:12;9.82;;;4.90;;
41661;SDS011;27351;45.992;12.666;2023-02-28T08:42:46;9.38;;;4.55;;
41661;SDS011;27351;45.992;12.666;2023-02-28T08:45:12;9.07;;;4.22;;
41661;SDS011;27351;45.992;12.666;2023-02-28T08:47:37;9.07;;;4.53;;
41661;SDS011;27351;45.992;12.666;2023-02-28T08:50:03;8.83;;;4.30;;
41661;SDS011;27351;45.992;12.666;2023-02-28T08:52:28;10.07;;;4.75;;
41661;SDS011;27351;45.992;12.666;2023-02-28T08:54:54;10.10;;;4.57;;
41661;SDS011;27351;45.992;12.666;2023-02-28T08:57:19;9.15;;;4.50;;
41661;SDS011;27351;45.992;12.666;2023-02-28T08:59:45;9.60;;;4.60;;
41661;SDS011;27351;45.992;12.666;2023-02-28T09:02:13;8.20;;;4.20;;
41661;SDS011;27351;45.992;12.666;2023-02-28T09:04:39;8.43;;;4.50;;
41661;SDS011;27351;45.992;12.666;2023-02-28T09:07:05;10.13;;;5.20;;
41661;SDS011;27351;45.992;12.666;2023-02-28T09:09:30;11.03;;;4.50;;
41661;SDS011;27351;45.992;12.666;2023-02-28T09:11:56;9.27;;;4.70;;
41661;SDS011;27351;45.992;12.666;2023-02-28T09:14:21;8.68;;;4.60;;
41661;SDS011;27351;45.992;12.666;2023-02-28T09:16:47;8.82;;;4.25;;
41661;SDS011;27351;45.992;12.666;2023-02-28T09:19:13;9.73;;;4.88;;
41661;SDS011;27351;45.992;12.666;2023-02-28T09:21:38;8.95;;;4.28;;
41661;SDS011;27351;45.992;12.666;2023-02-28T09:24:04;8.13;;;4.32;;
41661;SDS011;27351;45.992;12.666;2023-02-28T09:26:29;9.90;;;4.93;;
41661;SDS011;27351;45.992;12.666;2023-02-28T09:28:55;9.07;;;4.67;;
41661;SDS011;27351;45.992;12.666;2023-02-28T09:31:21;8.82;;;4.45;;
41661;SDS011;27351;45.992;12.666;2023-02-28T09:33:48;9.35;;;4.68;;
41661;SDS011;27351;45.992;12.666;2023-02-28T09:36:13;9.00;;;4.72;;
41661;SDS011;27351;45.992;12.666;2023-02-28T09:38:39;9.80;;;4.50;;
41661;SDS011;27351;45.992;12.666;2023-02-28T09:41:15;9.43;;;4.70;;
41661;SDS011;27351;45.992;12.666;2023-02-28T09:43:44;8.32;;;4.50;;
41661;SDS011;27351;45.992;12.666;2023-02-28T09:48:45;8.70;;;4.68;;
41661;SDS011;27351;45.992;12.666;2023-02-28T09:51:59;8.80;;;4.57;;
41661;SDS011;27351;45.992;12.666;2023-02-28T09:53:58;9.10;;;5.07;;
41661;SDS011;27351;45.992;12.666;2023-02-28T09:56:29;11.10;;;4.78;;
41661;SDS011;27351;45.992;12.666;2023-02-28T09:58:58;10.18;;;5.03;;
41661;SDS011;27351;45.992;12.666;2023-02-28T10:01:39;8.88;;;4.70;;
41661;SDS011;27351;45.992;12.666;2023-02-28T10:07:06;9.38;;;4.75;;
41661;SDS011;27351;45.992;12.666;2023-02-28T10:09:42;9.95;;;5.00;;
41661;SDS011;27351;45.992;12.666;2023-02-28T10:12:10;9.77;;;5.13;;
41661;SDS011;27351;45.992;12.666;2023-02-28T10:14:37;10.13;;;5.30;;
41661;SDS011;27351;45.992;12.666;2023-02-28T10:17:12;9.33;;;5.00;;
41661;SDS011;27351;45.992;12.666;2023-02-28T10:19:50;9.53;;;5.03;;
41661;SDS011;27351;45.992;12.666;2023-02-28T10:22:18;10.07;;;5.20;;
41661;SDS011;27351;45.992;12.666;2023-02-28T10:24:45;10.32;;;5.10;;
41661;SDS011;27351;45.992;12.666;2023-02-28T10:27:24;9.07;;;4.57;;
41661;SDS011;27351;45.992;12.666;2023-02-28T10:29:51;9.10;;;4.43;;
41661;SDS011;27351;45.992;12.666;2023-02-28T10:32:18;9.93;;;5.10;;
41661;SDS011;27351;45.992;12.666;2023-02-28T10:34:44;8.82;;;4.60;;
41661;SDS011;27351;45.992;12.666;2023-02-28T10:37:13;8.35;;;4.40;;
41661;SDS011;27351;45.992;12.666;2023-02-28T10:39:40;8.52;;;4.05;;
41661;SDS011;27351;45.992;12.666;2023-02-28T10:42:18;7.57;;;3.88;;
41661;SDS011;27351;45.992;12.666;2023-02-28T10:44:44;8.90;;;4.70;;
41661;SDS011;27351;45.992;12.666;2023-02-28T10:47:17;8.15;;;4.55;;
41661;SDS011;27351;45.992;12.666;2023-02-28T10:49:48;10.05;;;5.18;;
41661;SDS011;27351;45.992;12.666;2023-02-28T10:52:14;9.10;;;4.72;;
41661;SDS011;27351;45.992;12.666;2023-02-28T10:55:13;8.88;;;4.75;;
41661;SDS011;27351;45.992;12.666;2023-02-28T10:57:40;9.98;;;5.13;;
41661;SDS011;27351;45.992;12.666;2023-02-28T11:00:22;8.98;;;4.80;;
41661;SDS011;27351;45.992;12.666;2023-02-28T11:02:48;7.68;;;4.38;;
41661;SDS011;27351;45.992;12.666;2023-02-28T11:05:30;8.55;;;4.75;;
41661;SDS011;27351;45.992;12.666;2023-02-28T11:08:15;8.88;;;5.07;;
41661;SDS011;27351;45.992;12.666;2023-02-28T11:10:47;9.85;;;5.25;;
41661;SDS011;27351;45.992;12.666;2023-02-28T11:13:17;9.27;;;5.05;;
41661;SDS011;27351;45.992;12.666;2023-02-28T11:15:49;9.10;;;4.32;;
41661;SDS011;27351;45.992;12.666;2023-02-28T11:21:00;9.38;;;4.75;;
41661;SDS011;27351;45.992;12.666;2023-02-28T11:23:28;9.40;;;5.20;;
41661;SDS011;27351;45.992;12.666;2023-02-28T11:25:54;9.30;;;4.53;;
41661;SDS011;27351;45.992;12.666;2023-02-28T11:28:25;9.65;;;4.72;;
41661;SDS011;27351;45.992;12.666;2023-02-28T11:33:40;9.68;;;5.13;;
41661;SDS011;27351;45.992;12.666;2023-02-28T11:36:10;10.40;;;5.18;;
41661;SDS011;27351;45.992;12.666;2023-02-28T11:38:36;9.00;;;4.57;;
41661;SDS011;27351;45.992;12.666;2023-02-28T11:41:05;9.00;;;4.57;;
41661;SDS011;27351;45.992;12.666;2023-02-28T11:44:08;9.57;;;5.18;;
41661;SDS011;27351;45.992;12.666;2023-02-28T11:51:29;9.48;;;5.10;;
41661;SDS011;27351;45.992;12.666;2023-02-28T11:56:39;8.73;;;4.82;;
41661;SDS011;27351;45.992;12.666;2023-02-28T12:07:09;9.80;;;4.80;;
41661;SDS011;27351;45.992;12.666;2023-02-28T12:12:20;8.50;;;4.63;;
41661;SDS011;27351;45.992;12.666;2023-02-28T12:14:50;8.77;;;4.82;;
41661;SDS011;27351;45.992;12.666;2023-02-28T12:22:30;8.52;;;4.35;;
41661;SDS011;27351;45.992;12.666;2023-02-28T12:27:26;7.93;;;4.43;;
41661;SDS011;27351;45.992;12.666;2023-02-28T12:30:02;8.75;;;4.80;;
41661;SDS011;27351;45.992;12.666;2023-02-28T12:34:58;8.68;;;4.80;;
41661;SDS011;27351;45.992;12.666;2023-02-28T12:37:27;7.83;;;4.47;;
41661;SDS011;27351;45.992;12.666;2023-02-28T12:39:56;10.05;;;4.55;;
41661;SDS011;27351;45.992;12.666;2023-02-28T12:42:28;8.80;;;4.60;;
41661;SDS011;27351;45.992;12.666;2023-02-28T12:44:58;8.93;;;4.83;;
41661;SDS011;27351;45.992;12.666;2023-02-28T12:47:24;9.02;;;4.60;;
41661;SDS011;27351;45.992;12.666;2023-02-28T12:49:53;11.07;;;4.40;;
41661;SDS011;27351;45.992;12.666;2023-02-28T12:52:46;8.38;;;4.90;;
41661;SDS011;27351;45.992;12.666;2023-02-28T12:57:48;8.52;;;4.65;;
41661;SDS011;27351;45.992;12.666;2023-02-28T13:00:16;9.93;;;4.90;;
41661;SDS011;27351;45.992;12.666;2023-02-28T13:02:47;8.90;;;4.68;;
41661;SDS011;27351;45.992;12.666;2023-02-28T13:10:50;9.00;;;4.47;;
41661;SDS011;27351;45.992;12.666;2023-02-28T13:13:20;9.83;;;4.90;;
41661;SDS011;27351;45.992;12.666;2023-02-28T13:18:43;9.85;;;5.18;;
41661;SDS011;27351;45.992;12.666;2023-02-28T13:21:21;8.65;;;4.32;;
41661;SDS011;27351;45.992;12.666;2023-02-28T13:32:18;8.30;;;4.60;;
41661;SDS011;27351;45.992;12.666;2023-02-28T13:42:53;9.52;;;4.97;;
41661;SDS011;27351;45.992;12.666;2023-02-28T13:47:41;9.10;;;4.60;;
41661;SDS011;27351;45.992;12.666;2023-02-28T13:55:31;8.83;;;4.47;;
41661;SDS011;27351;45.992;12.666;2023-02-28T14:08:33;9.43;;;5.10;;
41661;SDS011;27351;45.992;12.666;2023-02-28T14:11:04;10.00;;;5.43;;
41661;SDS011;27351;45.992;12.666;2023-02-28T14:13:38;11.70;;;5.20;;
41661;SDS011;27351;45.992;12.666;2023-02-28T14:16:10;9.35;;;5.28;;
41661;SDS011;27351;45.992;12.666;2023-02-28T14:18:36;8.95;;;5.15;;
41661;SDS011;27351;45.992;12.666;2023-02-28T14:26:46;9.52;;;4.88;;
41661;SDS011;27351;45.992;12.666;2023-02-28T14:32:06;9.90;;;4.57;;
41661;SDS011;27351;45.992;12.666;2023-02-28T14:37:01;7.72;;;4.55;;
41661;SDS011;27351;45.992;12.666;2023-02-28T14:39:28;8.00;;;4.35;;
41661;SDS011;27351;45.992;12.666;2023-02-28T14:41:58;6.90;;;3.88;;
41661;SDS011;27351;45.992;12.666;2023-02-28T14:44:30;9.35;;;4.57;;
41661;SDS011;27351;45.992;12.666;2023-02-28T14:46:59;8.65;;;4.05;;
41661;SDS011;27351;45.992;12.666;2023-02-28T14:49:30;8.32;;;4.30;;
41661;SDS011;27351;45.992;12.666;2023-02-28T14:54:41;7.80;;;3.92;;
41661;SDS011;27351;45.992;12.666;2023-02-28T14:57:19;8.20;;;4.25;;
41661;SDS011;27351;45.992;12.666;2023-02-28T14:59:45;8.10;;;3.95;;
41661;SDS011;27351;45.992;12.666;2023-02-28T15:02:19;8.40;;;4.50;;
41661;SDS011;27351;45.992;12.666;2023-02-28T15:04:52;9.15;;;4.60;;
41661;SDS011;27351;45.992;12.666;2023-02-28T15:07:17;8.50;;;4.27;;
41661;SDS011;27351;45.992;12.666;2023-02-28T15:09:43;8.40;;;4.73;;
41661;SDS011;27351;45.992;12.666;2023-02-28T15:12:12;8.90;;;4.63;;
41661;SDS011;27351;45.992;12.666;2023-02-28T15:14:39;7.45;;;4.40;;
41661;SDS011;27351;45.992;12.666;2023-02-28T15:17:08;8.48;;;4.55;;
41661;SDS011;27351;45.992;12.666;2023-02-28T15:19:37;8.17;;;4.00;;
41661;SDS011;27351;45.992;12.666;2023-02-28T15:22:07;8.90;;;4.30;;
41661;SDS011;27351;45.992;12.666;2023-02-28T15:24:38;8.63;;;4.57;;
41661;SDS011;27351;45.992;12.666;2023-02-28T15:27:07;8.95;;;4.53;;
41661;SDS011;27351;45.992;12.666;2023-02-28T15:29:36;8.95;;;4.50;;
41661;SDS011;27351;45.992;12.666;2023-02-28T15:32:04;6.85;;;3.95;;
41661;SDS011;27351;45.992;12.666;2023-02-28T15:34:35;7.97;;;4.00;;
41661;SDS011;27351;45.992;12.666;2023-02-28T15:37:01;9.93;;;4.55;;
41661;SDS011;27351;45.992;12.666;2023-02-28T15:39:27;9.13;;;4.28;;
41661;SDS011;27351;45.992;12.666;2023-02-28T15:42:13;9.45;;;4.55;;
41661;SDS011;27351;45.992;12.666;2023-02-28T15:44:43;12.35;;;4.85;;
41661;SDS011;27351;45.992;12.666;2023-02-28T15:47:19;9.93;;;4.78;;
41661;SDS011;27351;45.992;12.666;2023-02-28T15:49:55;9.18;;;4.60;;
41661;SDS011;27351;45.992;12.666;2023-02-28T15:52:29;7.82;;;4.35;;
41661;SDS011;27351;45.992;12.666;2023-02-28T15:54:57;8.30;;;4.35;;
41661;SDS011;27351;45.992;12.666;2023-02-28T15:57:27;7.82;;;4.45;;
41661;SDS011;27351;45.992;12.666;2023-02-28T15:59:54;9.57;;;4.95;;
41661;SDS011;27351;45.992;12.666;2023-02-28T16:02:22;8.30;;;4.57;;
41661;SDS011;27351;45.992;12.666;2023-02-28T16:04:58;10.60;;;3.97;;
41661;SDS011;27351;45.992;12.666;2023-02-28T16:07:24;12.15;;;4.75;;
41661;SDS011;27351;45.992;12.666;2023-02-28T16:09:51;8.53;;;4.27;;
41661;SDS011;27351;45.992;12.666;2023-02-28T16:12:16;10.98;;;4.35;;
41661;SDS011;27351;45.992;12.666;2023-02-28T16:14:42;9.82;;;4.20;;
41661;SDS011;27351;45.992;12.666;2023-02-28T16:17:29;11.38;;;3.90;;
41661;SDS011;27351;45.992;12.666;2023-02-28T16:19:55;8.57;;;4.72;;
41661;SDS011;27351;45.992;12.666;2023-02-28T16:22:21;9.52;;;4.50;;
41661;SDS011;27351;45.992;12.666;2023-02-28T16:24:47;9.93;;;4.47;;
41661;SDS011;27351;45.992;12.666;2023-02-28T16:27:17;8.05;;;4.25;;
41661;SDS011;27351;45.992;12.666;2023-02-28T16:29:44;8.20;;;3.90;;
41661;SDS011;27351;45.992;12.666;2023-02-28T16:32:11;8.07;;;4.20;;
41661;SDS011;27351;45.992;12.666;2023-02-28T16:34:37;8.80;;;4.20;;
41661;SDS011;27351;45.992;12.666;2023-02-28T16:37:04;9.10;;;4.57;;
41661;SDS011;27351;45.992;12.666;2023-02-28T16:39:30;9.70;;;4.30;;
41661;SDS011;27351;45.992;12.666;2023-02-28T16:41:56;9.50;;;4.77;;
41661;SDS011;27351;45.992;12.666;2023-02-28T16:46:47;9.90;;;4.37;;
41661;SDS011;27351;45.992;12.666;2023-02-28T16:49:13;8.27;;;3.97;;
41661;SDS011;27351;45.992;12.666;2023-02-28T16:51:39;7.60;;;4.40;;
41661;SDS011;27351;45.992;12.666;2023-02-28T16:54:04;8.88;;;4.00;;
41661;SDS011;27351;45.992;12.666;2023-02-28T16:56:30;8.18;;;4.57;;